sensor_id;sensor_type;location;lat;lon;timestamp;pressure;altitude;pressure_sealevel;temperature;humidity
41596;BME280;27283;52.504;13.358;2023-04-20T00:00:35;101696.88;;;6.20;98.63
41596;BME280;27283;52.504;13.358;2023-04-20T00:03:16;101697.94;;;6.17;99.68
41596;BME280;27283;52.504;13.358;2023-04-20T00:05:50;101686.88;;;6.11;99.37
41596;BME280;27283;52.504;13.358;2023-04-20T00:08:22;101699.75;;;6.17;98.68
41596;BME280;27283;52.504;13.358;2023-04-20T00:10:58;101697.94;;;6.17;98.47
41596;BME280;27283;52.504;13.358;2023-04-20T00:13:30;101703.19;;;6.19;98.60
41596;BME280;27283;52.504;13.358;2023-04-20T00:16:06;101702.75;;;6.25;98.07
41596;BME280;27283;52.504;13.358;2023-04-20T00:18:47;101690.59;;;6.32;97.70
41596;BME280;27283;52.504;13.358;2023-04-20T00:21:24;101690.50;;;6.34;97.56
41596;BME280;27283;52.504;13.358;2023-04-20T00:23:59;101684.69;;;6.40;97.15
41596;BME280;27283;52.504;13.358;2023-04-20T00:26:35;101688.16;;;6.29;96.96
41596;BME280;27283;52.504;13.358;2023-04-20T00:29:07;101686.84;;;6.35;96.88
41596;BME280;27283;52.504;13.358;2023-04-20T00:31:42;101688.47;;;6.37;96.76
41596;BME280;27283;52.504;13.358;2023-04-20T00:34:15;101692.50;;;6.19;97.31
41596;BME280;27283;52.504;13.358;2023-04-20T00:36:48;101690.56;;;6.21;98.29
41596;BME280;27283;52.504;13.358;2023-04-20T00:39:25;101695.91;;;6.21;97.88
41596;BME280;27283;52.504;13.358;2023-04-20T00:42:10;101694.59;;;6.27;97.38
41596;BME280;27283;52.504;13.358;2023-04-20T00:44:43;101682.09;;;6.27;97.84
41596;BME280;27283;52.504;13.358;2023-04-20T00:47:15;101688.63;;;6.23;97.94
41596;BME280;27283;52.504;13.358;2023-04-20T00:49:48;101687.31;;;6.29;97.99
41596;BME280;27283;52.504;13.358;2023-04-20T00:52:21;101688.16;;;6.29;97.88
41596;BME280;27283;52.504;13.358;2023-04-20T00:54:56;101677.72;;;6.26;98.00
41596;BME280;27283;52.504;13.358;2023-04-20T00:57:32;101683.56;;;6.31;97.66
41596;BME280;27283;52.504;13.358;2023-04-20T01:00:06;101680.03;;;6.31;97.54
41596;BME280;27283;52.504;13.358;2023-04-20T01:02:39;101675.09;;;6.37;97.71
41596;BME280;27283;52.504;13.358;2023-04-20T01:05:27;101677.53;;;6.41;97.04
41596;BME280;27283;52.504;13.358;2023-04-20T01:08:00;101672.78;;;6.33;97.90
41596;BME280;27283;52.504;13.358;2023-04-20T01:10:32;101673.72;;;6.32;98.00
41596;BME280;27283;52.504;13.358;2023-04-20T01:13:08;101670.38;;;6.17;98.77
41596;BME280;27283;52.504;13.358;2023-04-20T01:15:40;101678.06;;;6.21;98.78
41596;BME280;27283;52.504;13.358;2023-04-20T01:18:15;101671.41;;;6.27;98.85
41596;BME280;27283;52.504;13.358;2023-04-20T01:20:48;101664.88;;;6.31;98.33
41596;BME280;27283;52.504;13.358;2023-04-20T01:23:24;101668.25;;;6.22;98.58
41596;BME280;27283;52.504;13.358;2023-04-20T01:26:06;101672.09;;;6.18;98.78
41596;BME280;27283;52.504;13.358;2023-04-20T01:28:39;101661.00;;;6.11;99.31
41596;BME280;27283;52.504;13.358;2023-04-20T01:31:12;101662.22;;;6.07;99.33
41596;BME280;27283;52.504;13.358;2023-04-20T01:33:45;101670.94;;;5.98;99.82
41596;BME280;27283;52.504;13.358;2023-04-20T01:36:20;101676.03;;;6.01;100.00
41596;BME280;27283;52.504;13.358;2023-04-20T01:38:58;101671.31;;;6.05;100.00
41596;BME280;27283;52.504;13.358;2023-04-20T01:41:30;101662.22;;;6.07;100.00
41596;BME280;27283;52.504;13.358;2023-04-20T01:44:05;101662.59;;;6.14;100.00
41596;BME280;27283;52.504;13.358;2023-04-20T01:46:37;101662.16;;;6.20;99.96
41596;BME280;27283;52.504;13.358;2023-04-20T01:49:10;101658.41;;;6.23;99.65
41596;BME280;27283;52.504;13.358;2023-04-20T01:51:42;101651.94;;;6.14;99.44
41596;BME280;27283;52.504;13.358;2023-04-20T01:54:17;101660.03;;;6.01;100.00
41596;BME280;27283;52.504;13.358;2023-04-20T01:56:50;101662.22;;;6.07;100.00
41596;BME280;27283;52.504;13.358;2023-04-20T01:59:23;101654.03;;;5.97;100.00
41596;BME280;27283;52.504;13.358;2023-04-20T02:01:55;101658.84;;;5.92;100.00
41596;BME280;27283;52.504;13.358;2023-04-20T02:04:27;101658.84;;;5.92;100.00
41596;BME280;27283;52.504;13.358;2023-04-20T02:06:59;101655.75;;;5.98;100.00
41596;BME280;27283;52.504;13.358;2023-04-20T02:09:35;101662.03;;;5.97;100.00
41596;BME280;27283;52.504;13.358;2023-04-20T02:12:07;101663.53;;;6.01;100.00
41596;BME280;27283;52.504;13.358;2023-04-20T02:14:39;101660.25;;;5.98;100.00
41596;BME280;27283;52.504;13.358;2023-04-20T02:17:11;101664.25;;;6.03;100.00
41596;BME280;27283;52.504;13.358;2023-04-20T02:19:44;101658.97;;;6.15;100.00
41596;BME280;27283;52.504;13.358;2023-04-20T02:22:18;101665.56;;;6.22;100.00
41596;BME280;27283;52.504;13.358;2023-04-20T02:24:53;101664.22;;;6.16;100.00
41596;BME280;27283;52.504;13.358;2023-04-20T02:27:25;101673.06;;;6.17;100.00
41596;BME280;27283;52.504;13.358;2023-04-20T04:01:54;101675.19;;;6.60;99.39
41596;BME280;27283;52.504;13.358;2023-04-20T04:04:27;101675.78;;;6.64;99.93
41596;BME280;27283;52.504;13.358;2023-04-20T04:07:00;101673.75;;;6.67;99.32
41596;BME280;27283;52.504;13.358;2023-04-20T04:09:33;101676.41;;;6.67;99.61
41596;BME280;27283;52.504;13.358;2023-04-20T04:12:06;101682.38;;;6.71;100.00
41596;BME280;27283;52.504;13.358;2023-04-20T04:14:39;101679.81;;;6.69;100.00
41596;BME280;27283;52.504;13.358;2023-04-20T04:17:15;101681.00;;;6.65;100.00
41596;BME280;27283;52.504;13.358;2023-04-20T04:19:48;101683.56;;;6.67;100.00
41596;BME280;27283;52.504;13.358;2023-04-20T04:22:21;101687.66;;;6.60;100.00
41596;BME280;27283;52.504;13.358;2023-04-20T04:24:53;101688.78;;;6.57;100.00
41596;BME280;27283;52.504;13.358;2023-04-20T04:27:26;101688.78;;;6.68;100.00
41596;BME280;27283;52.504;13.358;2023-04-20T04:30:04;101698.28;;;6.72;100.00
41596;BME280;27283;52.504;13.358;2023-04-20T04:32:39;101700.13;;;6.72;100.00
41596;BME280;27283;52.504;13.358;2023-04-20T04:37:59;101691.69;;;6.65;100.00
41596;BME280;27283;52.504;13.358;2023-04-20T04:40:32;101697.63;;;6.57;100.00
41596;BME280;27283;52.504;13.358;2023-04-20T04:43:05;101689.50;;;6.59;100.00
41596;BME280;27283;52.504;13.358;2023-04-20T04:45:38;101699.34;;;6.59;100.00
41596;BME280;27283;52.504;13.358;2023-04-20T04:48:14;101702.97;;;6.57;100.00
41596;BME280;27283;52.504;13.358;2023-04-20T04:50:47;101704.81;;;6.57;100.00
41596;BME280;27283;52.504;13.358;2023-04-20T04:53:19;101718.16;;;6.57;100.00
41596;BME280;27283;52.504;13.358;2023-04-20T04:55:52;101716.81;;;6.63;99.89
41596;BME280;27283;52.504;13.358;2023-04-20T04:58:24;101716.09;;;6.61;99.71
41596;BME280;27283;52.504;13.358;2023-04-20T05:00:58;101722.94;;;6.65;99.55
41596;BME280;27283;52.504;13.358;2023-04-20T05:03:34;101721.63;;;6.70;99.64
41596;BME280;27283;52.504;13.358;2023-04-20T05:06:09;101708.00;;;6.73;99.94
41596;BME280;27283;52.504;13.358;2023-04-20T05:08:42;101708.38;;;6.80;100.00
41596;BME280;27283;52.504;13.358;2023-04-20T05:11:21;101701.69;;;6.74;100.00
41596;BME280;27283;52.504;13.358;2023-04-20T05:13:54;101708.16;;;6.83;98.78
41596;BME280;27283;52.504;13.358;2023-04-20T05:16:28;101715.22;;;6.84;98.43
41596;BME280;27283;52.504;13.358;2023-04-20T05:19:06;101729.66;;;6.82;98.72
41596;BME280;27283;52.504;13.358;2023-04-20T05:21:41;101731.59;;;6.80;98.87
41596;BME280;27283;52.504;13.358;2023-04-20T05:24:18;101718.72;;;6.85;98.24
41596;BME280;27283;52.504;13.358;2023-04-20T05:26:52;101718.38;;;6.89;98.21
41596;BME280;27283;52.504;13.358;2023-04-20T05:29:24;101717.88;;;6.84;97.57
41596;BME280;27283;52.504;13.358;2023-04-20T05:31:59;101723.34;;;6.94;96.51
41596;BME280;27283;52.504;13.358;2023-04-20T05:34:36;101711.69;;;6.95;96.28
41596;BME280;27283;52.504;13.358;2023-04-20T05:37:09;101721.69;;;7.04;95.89
41596;BME280;27283;52.504;13.358;2023-04-20T05:39:43;101730.09;;;7.11;95.04
41596;BME280;27283;52.504;13.358;2023-04-20T05:42:17;101729.09;;;7.01;93.24
41596;BME280;27283;52.504;13.358;2023-04-20T05:44:51;101728.63;;;7.07;92.84
41596;BME280;27283;52.504;13.358;2023-04-20T05:47:25;101742.59;;;7.10;92.87
41596;BME280;27283;52.504;13.358;2023-04-20T05:50:03;101750.13;;;7.05;93.75
41596;BME280;27283;52.504;13.358;2023-04-20T05:52:37;101748.69;;;7.13;93.07
41596;BME280;27283;52.504;13.358;2023-04-20T05:55:09;101734.50;;;7.23;92.70
41596;BME280;27283;52.504;13.358;2023-04-20T05:57:46;101733.97;;;7.18;92.70
41596;BME280;27283;52.504;13.358;2023-04-20T06:00:20;101742.28;;;7.26;92.08
41596;BME280;27283;52.504;13.358;2023-04-20T06:02:56;101750.25;;;7.15;92.29
41596;BME280;27283;52.504;13.358;2023-04-20T06:05:33;101741.03;;;7.19;92.25
41596;BME280;27283;52.504;13.358;2023-04-20T06:08:08;101736.28;;;7.23;92.41
41596;BME280;27283;52.504;13.358;2023-04-20T06:10:41;101746.19;;;7.34;92.39
41596;BME280;27283;52.504;13.358;2023-04-20T06:13:14;101756.16;;;7.43;91.96
41596;BME280;27283;52.504;13.358;2023-04-20T06:15:46;101755.28;;;7.42;91.28
41596;BME280;27283;52.504;13.358;2023-04-20T06:18:21;101753.59;;;7.41;91.28
41596;BME280;27283;52.504;13.358;2023-04-20T06:20:56;101753.97;;;7.37;90.95
41596;BME280;27283;52.504;13.358;2023-04-20T06:23:30;101752.72;;;7.30;91.44
41596;BME280;27283;52.504;13.358;2023-04-20T06:26:03;101764.53;;;7.38;91.53
41596;BME280;27283;52.504;13.358;2023-04-20T06:28:38;101761.25;;;7.46;90.99
41596;BME280;27283;52.504;13.358;2023-04-20T06:31:11;101762.84;;;7.60;91.32
41596;BME280;27283;52.504;13.358;2023-04-20T06:33:43;101776.09;;;7.61;90.52
41596;BME280;27283;52.504;13.358;2023-04-20T06:36:21;101773.31;;;7.63;91.09
41596;BME280;27283;52.504;13.358;2023-04-20T06:38:57;101770.63;;;7.63;90.34
41596;BME280;27283;52.504;13.358;2023-04-20T06:41:30;101761.38;;;7.67;90.45
41596;BME280;27283;52.504;13.358;2023-04-20T06:44:03;101775.75;;;7.66;89.59
41596;BME280;27283;52.504;13.358;2023-04-20T06:46:36;101770.50;;;7.65;89.14
41596;BME280;27283;52.504;13.358;2023-04-20T06:49:09;101768.78;;;7.63;88.82
41596;BME280;27283;52.504;13.358;2023-04-20T06:51:44;101782.19;;;7.63;89.46
41596;BME280;27283;52.504;13.358;2023-04-20T06:54:18;101767.81;;;7.65;89.55
41596;BME280;27283;52.504;13.358;2023-04-20T06:56:52;101774.50;;;7.81;88.17
41596;BME280;27283;52.504;13.358;2023-04-20T06:59:26;101766.72;;;7.90;87.98
41596;BME280;27283;52.504;13.358;2023-04-20T07:01:58;101762.69;;;7.95;87.29
41596;BME280;27283;52.504;13.358;2023-04-20T07:04:30;101754.50;;;8.08;86.69
41596;BME280;27283;52.504;13.358;2023-04-20T07:07:06;101755.69;;;8.27;84.68
41596;BME280;27283;52.504;13.358;2023-04-20T07:09:39;101769.66;;;8.42;84.25
41596;BME280;27283;52.504;13.358;2023-04-20T07:12:11;101770.66;;;8.73;83.95
41596;BME280;27283;52.504;13.358;2023-04-20T07:14:44;101778.06;;;9.02;82.39
41596;BME280;27283;52.504;13.358;2023-04-20T07:17:17;101770.47;;;9.28;81.29
41596;BME280;27283;52.504;13.358;2023-04-20T07:19:49;101775.25;;;9.46;78.84
41596;BME280;27283;52.504;13.358;2023-04-20T07:22:24;101780.16;;;9.40;78.94
41596;BME280;27283;52.504;13.358;2023-04-20T07:24:58;101787.19;;;9.32;78.92
41596;BME280;27283;52.504;13.358;2023-04-20T07:27:54;101796.75;;;9.55;79.27
41596;BME280;27283;52.504;13.358;2023-04-20T07:30:27;101789.25;;;9.80;78.62
41596;BME280;27283;52.504;13.358;2023-04-20T07:32:59;101790.97;;;9.91;76.49
41596;BME280;27283;52.504;13.358;2023-04-20T07:35:32;101793.09;;;9.87;77.41
41596;BME280;27283;52.504;13.358;2023-04-20T07:38:07;101797.53;;;9.98;77.41
41596;BME280;27283;52.504;13.358;2023-04-20T07:40:40;101796.00;;;10.15;75.98
41596;BME280;27283;52.504;13.358;2023-04-20T07:43:13;101797.66;;;10.06;75.52
41596;BME280;27283;52.504;13.358;2023-04-20T07:45:45;101805.91;;;10.15;75.24
41596;BME280;27283;52.504;13.358;2023-04-20T07:48:18;101805.50;;;10.19;75.07
41596;BME280;27283;52.504;13.358;2023-04-20T07:50:50;101807.09;;;9.91;74.22
41596;BME280;27283;52.504;13.358;2023-04-20T07:53:26;101803.56;;;9.60;75.63
41596;BME280;27283;52.504;13.358;2023-04-20T07:56:07;101803.13;;;9.54;76.74
41596;BME280;27283;52.504;13.358;2023-04-20T07:58:39;101807.44;;;9.46;76.46
41596;BME280;27283;52.504;13.358;2023-04-20T08:01:12;101800.16;;;9.57;76.62
41596;BME280;27283;52.504;13.358;2023-04-20T08:04:00;101810.91;;;9.57;77.00
41596;BME280;27283;52.504;13.358;2023-04-20T08:06:48;101813.25;;;9.51;77.14
41596;BME280;27283;52.504;13.358;2023-04-20T08:09:23;101810.19;;;9.55;77.31
41596;BME280;27283;52.504;13.358;2023-04-20T08:12:00;101805.44;;;9.69;76.59
41596;BME280;27283;52.504;13.358;2023-04-20T08:14:34;101804.34;;;9.81;76.73
41596;BME280;27283;52.504;13.358;2023-04-20T08:17:07;101803.09;;;10.26;73.73
41596;BME280;27283;52.504;13.358;2023-04-20T08:19:40;101804.59;;;10.59;72.36
41596;BME280;27283;52.504;13.358;2023-04-20T08:22:14;101805.03;;;11.04;69.82
41596;BME280;27283;52.504;13.358;2023-04-20T08:24:52;101809.28;;;11.16;69.15
41596;BME280;27283;52.504;13.358;2023-04-20T08:27:25;101803.75;;;11.08;69.65
41596;BME280;27283;52.504;13.358;2023-04-20T08:29:58;101802.34;;;10.84;69.53
41596;BME280;27283;52.504;13.358;2023-04-20T08:32:32;101815.66;;;10.66;70.90
41596;BME280;27283;52.504;13.358;2023-04-20T08:35:05;101820.56;;;10.41;71.53
41596;BME280;27283;52.504;13.358;2023-04-20T08:37:39;101812.88;;;10.27;73.21
41596;BME280;27283;52.504;13.358;2023-04-20T08:40:17;101819.03;;;10.08;74.19
41596;BME280;27283;52.504;13.358;2023-04-20T08:42:50;101809.94;;;9.99;75.03
41596;BME280;27283;52.504;13.358;2023-04-20T08:45:23;101815.97;;;9.82;76.34
41596;BME280;27283;52.504;13.358;2023-04-20T08:47:57;101826.53;;;9.73;74.72
41596;BME280;27283;52.504;13.358;2023-04-20T08:50:30;101821.28;;;9.72;74.87
41596;BME280;27283;52.504;13.358;2023-04-20T08:53:03;101821.31;;;9.51;76.40
41596;BME280;27283;52.504;13.358;2023-04-20T08:55:40;101821.78;;;9.56;76.28
41596;BME280;27283;52.504;13.358;2023-04-20T08:58:13;101823.97;;;9.41;78.82
41596;BME280;27283;52.504;13.358;2023-04-20T09:00:46;101824.09;;;9.39;78.56
41596;BME280;27283;52.504;13.358;2023-04-20T09:03:32;101814.41;;;9.27;80.51
41596;BME280;27283;52.504;13.358;2023-04-20T09:06:13;101808.91;;;9.29;81.49
41596;BME280;27283;52.504;13.358;2023-04-20T09:08:48;101820.88;;;9.25;81.07
41596;BME280;27283;52.504;13.358;2023-04-20T09:11:25;101810.69;;;9.18;83.25
41596;BME280;27283;52.504;13.358;2023-04-20T09:14:00;101808.91;;;9.08;83.36
41596;BME280;27283;52.504;13.358;2023-04-20T09:16:35;101808.09;;;8.96;83.65
41596;BME280;27283;52.504;13.358;2023-04-20T09:19:07;101816.94;;;8.86;84.78
41596;BME280;27283;52.504;13.358;2023-04-20T09:21:48;101822.81;;;8.80;87.00
41596;BME280;27283;52.504;13.358;2023-04-20T09:24:22;101822.59;;;8.72;88.10
41596;BME280;27283;52.504;13.358;2023-04-20T09:26:58;101812.38;;;8.66;89.04
41596;BME280;27283;52.504;13.358;2023-04-20T09:29:31;101809.94;;;8.63;89.48
41596;BME280;27283;52.504;13.358;2023-04-20T09:32:03;101810.41;;;8.68;88.69
41596;BME280;27283;52.504;13.358;2023-04-20T09:34:42;101809.50;;;8.58;90.23
41596;BME280;27283;52.504;13.358;2023-04-20T09:37:15;101818.00;;;8.63;89.53
41596;BME280;27283;52.504;13.358;2023-04-20T09:39:49;101809.53;;;8.79;89.18
41596;BME280;27283;52.504;13.358;2023-04-20T09:42:26;101813.34;;;8.97;91.01
41596;BME280;27283;52.504;13.358;2023-04-20T09:45:19;101808.13;;;9.38;85.25
41596;BME280;27283;52.504;13.358;2023-04-20T09:47:54;101806.75;;;9.74;83.85
41596;BME280;27283;52.504;13.358;2023-04-20T09:50:27;101806.72;;;10.05;81.74
41596;BME280;27283;52.504;13.358;2023-04-20T09:53:20;101804.06;;;10.25;79.13
41596;BME280;27283;52.504;13.358;2023-04-20T09:55:53;101799.06;;;10.41;81.29
41596;BME280;27283;52.504;13.358;2023-04-20T09:58:32;101795.69;;;10.59;80.03
41596;BME280;27283;52.504;13.358;2023-04-20T10:01:09;101804.31;;;10.82;77.60
41596;BME280;27283;52.504;13.358;2023-04-20T10:03:42;101800.91;;;10.90;77.46
41596;BME280;27283;52.504;13.358;2023-04-20T10:06:25;101798.50;;;10.87;77.81
41596;BME280;27283;52.504;13.358;2023-04-20T10:09:05;101794.00;;;11.07;77.68
41596;BME280;27283;52.504;13.358;2023-04-20T10:11:40;101794.94;;;11.15;77.00
41596;BME280;27283;52.504;13.358;2023-04-20T10:14:24;101796.41;;;11.57;75.06
41596;BME280;27283;52.504;13.358;2023-04-20T10:16:59;101796.59;;;11.83;73.74
41596;BME280;27283;52.504;13.358;2023-04-20T10:19:38;101785.22;;;11.99;75.47
41596;BME280;27283;52.504;13.358;2023-04-20T10:22:25;101790.16;;;12.68;74.12
41596;BME280;27283;52.504;13.358;2023-04-20T10:25:14;101794.97;;;13.18;69.09
41596;BME280;27283;52.504;13.358;2023-04-20T10:27:55;101796.44;;;13.12;68.63
41596;BME280;27283;52.504;13.358;2023-04-20T10:30:34;101794.44;;;12.25;69.74
41596;BME280;27283;52.504;13.358;2023-04-20T10:33:10;101785.34;;;12.44;71.70
41596;BME280;27283;52.504;13.358;2023-04-20T10:35:48;101791.63;;;12.62;70.61
41596;BME280;27283;52.504;13.358;2023-04-20T10:38:30;101791.91;;;12.59;69.38
41596;BME280;27283;52.504;13.358;2023-04-20T10:41:05;101786.28;;;12.52;70.04
41596;BME280;27283;52.504;13.358;2023-04-20T10:43:39;101771.19;;;12.59;70.76
41596;BME280;27283;52.504;13.358;2023-04-20T10:46:18;101772.81;;;12.70;69.29
41596;BME280;27283;52.504;13.358;2023-04-20T10:48:54;101766.94;;;12.57;70.57
41596;BME280;27283;52.504;13.358;2023-04-20T10:51:29;101765.63;;;12.43;71.84
41596;BME280;27283;52.504;13.358;2023-04-20T10:54:06;101758.38;;;12.44;71.59
41596;BME280;27283;52.504;13.358;2023-04-20T10:56:42;101762.78;;;12.81;68.23
41596;BME280;27283;52.504;13.358;2023-04-20T10:59:22;101761.97;;;13.33;70.46
41596;BME280;27283;52.504;13.358;2023-04-20T11:02:00;101761.53;;;13.72;63.72
41596;BME280;27283;52.504;13.358;2023-04-20T11:04:37;101765.53;;;13.94;63.47
41596;BME280;27283;52.504;13.358;2023-04-20T11:07:13;101756.88;;;13.90;63.02
41596;BME280;27283;52.504;13.358;2023-04-20T11:09:54;101761.59;;;13.80;65.17
41596;BME280;27283;52.504;13.358;2023-04-20T11:12:40;101756.81;;;13.39;66.37
41596;BME280;27283;52.504;13.358;2023-04-20T11:15:31;101751.59;;;13.20;66.30
41596;BME280;27283;52.504;13.358;2023-04-20T11:18:11;101753.88;;;13.33;66.41
41596;BME280;27283;52.504;13.358;2023-04-20T11:20:50;101747.25;;;13.27;66.54
41596;BME280;27283;52.504;13.358;2023-04-20T11:23:36;101754.78;;;13.15;66.21
41596;BME280;27283;52.504;13.358;2023-04-20T11:26:13;101747.16;;;13.10;66.73
41596;BME280;27283;52.504;13.358;2023-04-20T11:28:50;101753.91;;;13.15;67.30
41596;BME280;27283;52.504;13.358;2023-04-20T11:31:28;101752.63;;;13.01;68.36
41596;BME280;27283;52.504;13.358;2023-04-20T11:34:03;101748.84;;;13.11;68.00
41596;BME280;27283;52.504;13.358;2023-04-20T11:36:38;101745.81;;;13.15;67.41
41596;BME280;27283;52.504;13.358;2023-04-20T11:39:11;101748.72;;;13.39;67.79
41596;BME280;27283;52.504;13.358;2023-04-20T11:41:47;101747.91;;;13.47;68.42
41596;BME280;27283;52.504;13.358;2023-04-20T11:44:20;101735.84;;;13.68;65.74
41596;BME280;27283;52.504;13.358;2023-04-20T11:46:55;101729.09;;;13.63;65.71
41596;BME280;27283;52.504;13.358;2023-04-20T11:49:34;101732.44;;;13.57;65.65
41596;BME280;27283;52.504;13.358;2023-04-20T11:52:07;101733.13;;;13.59;66.06
41596;BME280;27283;52.504;13.358;2023-04-20T11:54:40;101730.69;;;13.48;66.54
41596;BME280;27283;52.504;13.358;2023-04-20T11:57:13;101724.00;;;13.60;66.67
41596;BME280;27283;52.504;13.358;2023-04-20T11:59:46;101727.97;;;13.82;65.72
41596;BME280;27283;52.504;13.358;2023-04-20T12:02:19;101721.56;;;13.92;65.98
41596;BME280;27283;52.504;13.358;2023-04-20T12:04:55;101720.28;;;14.04;64.88
41596;BME280;27283;52.504;13.358;2023-04-20T12:07:31;101722.25;;;13.94;66.53
41596;BME280;27283;52.504;13.358;2023-04-20T12:10:05;101720.31;;;13.70;68.67
41596;BME280;27283;52.504;13.358;2023-04-20T12:12:39;101719.50;;;13.35;68.90
41596;BME280;27283;52.504;13.358;2023-04-20T12:15:12;101716.00;;;13.24;69.52
41596;BME280;27283;52.504;13.358;2023-04-20T12:17:45;101720.31;;;13.09;71.36
41596;BME280;27283;52.504;13.358;2023-04-20T12:20:21;101714.78;;;13.19;70.78
41596;BME280;27283;52.504;13.358;2023-04-20T12:22:55;101720.88;;;13.21;71.15
41596;BME280;27283;52.504;13.358;2023-04-20T12:25:27;101707.44;;;13.29;70.62
41596;BME280;27283;52.504;13.358;2023-04-20T12:28:01;101713.84;;;13.54;70.63
41596;BME280;27283;52.504;13.358;2023-04-20T12:30:36;101708.16;;;13.74;69.33
41596;BME280;27283;52.504;13.358;2023-04-20T12:33:09;101704.72;;;13.98;68.58
41596;BME280;27283;52.504;13.358;2023-04-20T12:35:45;101701.00;;;14.15;68.75
41596;BME280;27283;52.504;13.358;2023-04-20T12:38:18;101696.28;;;14.01;68.86
41596;BME280;27283;52.504;13.358;2023-04-20T12:40:51;101693.06;;;14.14;68.25
41596;BME280;27283;52.504;13.358;2023-04-20T12:43:24;101692.41;;;14.20;68.38
41596;BME280;27283;52.504;13.358;2023-04-20T12:45:57;101690.38;;;14.14;69.15
41596;BME280;27283;52.504;13.358;2023-04-20T12:48:31;101684.63;;;14.33;68.31
41596;BME280;27283;52.504;13.358;2023-04-20T12:51:15;101682.41;;;14.12;67.31
41596;BME280;27283;52.504;13.358;2023-04-20T12:53:49;101669.22;;;14.17;66.47
41596;BME280;27283;52.504;13.358;2023-04-20T12:56:21;101663.88;;;14.67;64.62
41596;BME280;27283;52.504;13.358;2023-04-20T12:58:54;101663.53;;;14.78;63.23
41596;BME280;27283;52.504;13.358;2023-04-20T13:01:27;101674.88;;;14.65;61.61
41596;BME280;27283;52.504;13.358;2023-04-20T13:04:01;101662.50;;;14.87;62.05
41596;BME280;27283;52.504;13.358;2023-04-20T13:06:37;101670.78;;;14.86;61.63
41596;BME280;27283;52.504;13.358;2023-04-20T13:09:10;101664.53;;;14.52;62.68
41596;BME280;27283;52.504;13.358;2023-04-20T13:11:44;101663.88;;;14.67;62.26
41596;BME280;27283;52.504;13.358;2023-04-20T13:14:17;101657.91;;;14.96;62.14
41596;BME280;27283;52.504;13.358;2023-04-20T13:16:50;101655.34;;;15.03;61.44
41596;BME280;27283;52.504;13.358;2023-04-20T13:19:24;101650.72;;;15.20;60.72
41596;BME280;27283;52.504;13.358;2023-04-20T13:22:00;101657.00;;;15.20;60.36
41596;BME280;27283;52.504;13.358;2023-04-20T13:24:33;101652.59;;;15.19;60.19
41596;BME280;27283;52.504;13.358;2023-04-20T13:27:06;101650.31;;;14.92;60.98
41596;BME280;27283;52.504;13.358;2023-04-20T13:29:40;101647.25;;;14.86;61.41
41596;BME280;27283;52.504;13.358;2023-04-20T13:32:13;101653.69;;;14.94;62.05
41596;BME280;27283;52.504;13.358;2023-04-20T13:34:46;101639.28;;;15.01;61.60
41596;BME280;27283;52.504;13.358;2023-04-20T13:37:21;101635.56;;;14.94;61.36
41596;BME280;27283;52.504;13.358;2023-04-20T13:39:54;101642.69;;;14.87;62.33
41596;BME280;27283;52.504;13.358;2023-04-20T13:42:27;101634.19;;;14.98;62.36
41596;BME280;27283;52.504;13.358;2023-04-20T13:45:00;101637.38;;;15.10;61.08
41596;BME280;27283;52.504;13.358;2023-04-20T13:47:33;101632.28;;;15.15;60.25
41596;BME280;27283;52.504;13.358;2023-04-20T13:50:07;101632.09;;;15.17;60.21
41596;BME280;27283;52.504;13.358;2023-04-20T13:52:42;101636.13;;;15.29;59.14
41596;BME280;27283;52.504;13.358;2023-04-20T13:55:15;101629.09;;;15.12;59.40
41596;BME280;27283;52.504;13.358;2023-04-20T13:57:48;101627.56;;;15.17;59.13
41596;BME280;27283;52.504;13.358;2023-04-20T14:00:21;101620.97;;;15.12;59.96
41596;BME280;27283;52.504;13.358;2023-04-20T14:02:54;101620.09;;;15.11;59.65
41596;BME280;27283;52.504;13.358;2023-04-20T14:05:28;101629.72;;;15.22;58.69
41596;BME280;27283;52.504;13.358;2023-04-20T14:08:12;101619.06;;;15.20;58.42
41596;BME280;27283;52.504;13.358;2023-04-20T14:10:46;101611.13;;;15.19;58.67
41596;BME280;27283;52.504;13.358;2023-04-20T14:13:21;101616.72;;;15.17;58.82
41596;BME280;27283;52.504;13.358;2023-04-20T14:15:58;101607.38;;;15.20;58.32
41596;BME280;27283;52.504;13.358;2023-04-20T14:18:30;101608.25;;;15.12;58.71
41596;BME280;27283;52.504;13.358;2023-04-20T14:21:05;101610.41;;;15.25;57.95
41596;BME280;27283;52.504;13.358;2023-04-20T14:23:40;101600.22;;;15.35;58.24
41596;BME280;27283;52.504;13.358;2023-04-20T14:26:15;101600.38;;;15.34;57.74
41596;BME280;27283;52.504;13.358;2023-04-20T14:28:47;101599.88;;;15.30;58.19
41596;BME280;27283;52.504;13.358;2023-04-20T14:31:24;101596.09;;;15.39;58.64
41596;BME280;27283;52.504;13.358;2023-04-20T14:34:00;101599.09;;;15.53;57.32
41596;BME280;27283;52.504;13.358;2023-04-20T14:36:33;101594.78;;;15.67;57.03
41596;BME280;27283;52.504;13.358;2023-04-20T14:39:17;101588.16;;;15.69;57.38
41596;BME280;27283;52.504;13.358;2023-04-20T14:41:53;101581.50;;;15.80;56.54
41596;BME280;27283;52.504;13.358;2023-04-20T14:44:26;101590.66;;;15.79;56.15
41596;BME280;27283;52.504;13.358;2023-04-20T14:47:05;101580.38;;;15.98;56.46
41596;BME280;27283;52.504;13.358;2023-04-20T14:49:55;101573.34;;;16.03;55.68
41596;BME280;27283;52.504;13.358;2023-04-20T14:52:38;101570.41;;;16.13;54.84
41596;BME280;27283;52.504;13.358;2023-04-20T14:55:39;101565.75;;;16.22;55.26
41596;BME280;27283;52.504;13.358;2023-04-20T15:01:22;101563.88;;;16.22;55.17
41596;BME280;27283;52.504;13.358;2023-04-20T15:03:49;101556.56;;;16.23;54.66